createdAt,value
2023-03-24T00:04:35.180Z,64.67
2023-03-24T00:09:36.353Z,63.53
2023-03-24T00:14:36.564Z,62.92
2023-03-24T00:19:37.693Z,62.52
2023-03-24T00:24:38.942Z,62.52
2023-03-24T00:29:40.083Z,62.29
2023-03-24T00:34:41.222Z,62.08
2023-03-24T00:39:42.415Z,61.37
2023-03-24T00:44:44.576Z,60.84
2023-03-24T00:49:43.805Z,60.84
2023-03-24T00:54:44.975Z,72.96
2023-03-24T00:59:46.510Z,73.57
2023-03-24T01:04:45.648Z,73.39
2023-03-24T01:09:46.839Z,73.30
2023-03-24T01:14:48.000Z,73.50
2023-03-24T01:19:49.149Z,73.60
2023-03-24T01:24:50.350Z,72.75
2023-03-24T01:29:51.580Z,73.09
2023-03-24T01:34:52.886Z,72.58
2023-03-24T01:39:54.174Z,70.82
2023-03-24T01:44:55.353Z,70.31
2023-03-24T01:49:56.576Z,73.91
2023-03-24T01:54:57.708Z,75.57
2023-03-24T01:59:58.970Z,76.52
2023-03-24T02:05:00.120Z,77.03
2023-03-24T02:10:05.181Z,78.08
2023-03-24T02:15:02.385Z,78.53
2023-03-24T02:20:03.567Z,79.03
2023-03-24T02:25:04.685Z,78.73
2023-03-24T02:30:05.832Z,78.89
2023-03-24T02:35:07.032Z,79.30
2023-03-24T02:40:08.175Z,79.50
2023-03-24T02:45:09.312Z,79.61
2023-03-24T02:50:10.530Z,79.50
2023-03-24T02:55:12.675Z,79.54
2023-03-24T03:00:11.794Z,78.32
2023-03-24T03:05:13.023Z,77.26
2023-03-24T03:10:14.235Z,76.18
2023-03-24T03:15:16.402Z,76.45
2023-03-24T03:20:15.641Z,75.81
2023-03-24T03:25:16.781Z,73.33
2023-03-24T03:30:17.950Z,68.79
2023-03-24T03:35:20.286Z,68.73
2023-03-24T03:40:19.401Z,70.99
2023-03-24T03:45:20.530Z,72.85
2023-03-24T03:50:21.741Z,79.33
2023-03-24T03:55:23.300Z,83.21
2023-03-24T04:00:24.130Z,82.94
2023-03-24T04:05:23.125Z,82.64
2023-03-24T04:10:24.289Z,81.72
2023-03-24T04:15:25.447Z,81.72
2023-03-24T04:20:26.651Z,81.52
2023-03-24T04:25:27.828Z,82.23
2023-03-24T04:30:28.991Z,82.54
2023-03-24T04:35:30.169Z,82.47
2023-03-24T04:40:31.403Z,82.78
2023-03-24T04:45:32.626Z,83.80
2023-03-24T04:50:33.747Z,83.39
2023-03-24T04:55:34.908Z,84.45
2023-03-24T05:00:36.073Z,85.10
2023-03-24T05:05:37.280Z,85.30
2023-03-24T05:10:38.436Z,85.61
2023-03-24T05:15:39.684Z,86.12
2023-03-24T05:20:40.797Z,86.98
2023-03-24T05:25:43.218Z,86.36
2023-03-24T05:30:42.647Z,86.98
2023-03-24T05:35:43.941Z,85.92
2023-03-24T05:40:44.260Z,81.49
2023-03-24T05:45:43.946Z,82.27
2023-03-24T05:50:43.365Z,81.86
2023-03-24T05:55:44.611Z,83.12
2023-03-24T06:00:45.918Z,84.55
2023-03-24T06:05:47.343Z,84.75
2023-03-24T06:10:46.695Z,87.45
2023-03-24T06:15:48.482Z,88.26
2023-03-24T06:20:47.797Z,87.10
2023-03-24T06:25:48.938Z,84.11
2023-03-24T06:30:50.145Z,83.01
2023-03-24T06:35:51.361Z,79.00
2023-03-24T06:40:52.548Z,77.70
2023-03-24T06:45:53.781Z,77.87
2023-03-24T06:50:54.947Z,78.89
2023-03-24T06:55:56.189Z,78.04
2023-03-24T07:00:57.409Z,76.28
2023-03-24T07:05:58.606Z,76.54
2023-03-24T07:10:59.732Z,74.65
2023-03-24T07:15:59.982Z,73.16
2023-03-24T07:21:01.125Z,72.48
2023-03-24T07:26:02.326Z,72.55
2023-03-24T07:31:04.537Z,73.16
2023-03-24T07:36:03.814Z,72.72
2023-03-24T07:41:05.010Z,73.32
2023-03-24T07:46:08.407Z,73.56
2023-03-24T07:51:06.297Z,73.36
2023-03-24T07:56:07.393Z,75.42
2023-03-24T08:01:08.633Z,75.66
2023-03-24T08:06:09.873Z,76.54
2023-03-24T08:11:11.066Z,77.01
2023-03-24T08:16:12.503Z,76.90
2023-03-24T08:21:14.064Z,78.33
2023-03-24T08:26:13.124Z,79.71
2023-03-24T08:31:14.311Z,79.13
2023-03-24T08:36:15.463Z,78.28
2023-03-24T08:41:16.571Z,77.68
2023-03-24T08:46:17.725Z,76.87
2023-03-24T08:51:18.928Z,77.28
2023-03-24T08:56:20.056Z,80.21
2023-03-24T09:01:21.264Z,82.44
2023-03-24T09:06:21.391Z,83.15
2023-03-24T09:11:23.643Z,84.24
2023-03-24T09:16:23.752Z,85.13
2023-03-24T09:21:22.898Z,85.07
2023-03-24T09:26:24.041Z,86.19
2023-03-24T09:31:25.196Z,84.78
2023-03-24T09:36:26.369Z,84.24
2023-03-24T09:41:28.416Z,85.86
2023-03-24T09:46:28.670Z,85.27
2023-03-24T09:51:27.731Z,84.56
2023-03-24T09:56:27.880Z,83.72
2023-03-24T10:01:30.020Z,81.39
2023-03-24T10:06:29.199Z,80.62
2023-03-24T10:11:29.349Z,82.58
2023-03-24T10:16:30.538Z,87.02
2023-03-24T10:21:31.659Z,88.03
2023-03-24T10:26:33.783Z,88.23
2023-03-24T10:31:32.970Z,87.87
2023-03-24T10:36:35.108Z,86.35
2023-03-24T10:41:34.178Z,85.90
2023-03-24T10:46:35.343Z,87.12
2023-03-24T10:51:36.398Z,88.38
2023-03-24T10:56:37.563Z,90.49
2023-03-24T11:01:39.724Z,90.59
2023-03-24T11:06:38.806Z,90.45
2023-03-24T11:11:39.963Z,90.80
2023-03-24T11:16:41.117Z,92.12
2023-03-24T11:21:42.236Z,90.55
2023-03-24T11:26:43.362Z,90.81
2023-03-24T11:31:45.582Z,91.12
2023-03-24T11:36:47.138Z,90.88
2023-03-24T11:41:44.623Z,90.02
2023-03-24T11:46:45.702Z,90.02
2023-03-24T11:51:46.854Z,90.35
2023-03-24T11:56:48.978Z,92.87
2023-03-24T12:01:47.040Z,94.54
2023-03-24T12:06:49.231Z,94.89
2023-03-24T12:11:48.435Z,94.95
2023-03-24T12:16:49.622Z,94.74
2023-03-24T12:21:50.715Z,95.36
2023-03-24T12:26:51.882Z,95.51
2023-03-24T12:31:53.176Z,96.78
2023-03-24T12:36:54.415Z,95.86
2023-03-24T12:41:55.606Z,96.43
2023-03-24T12:46:56.865Z,94.25
2023-03-24T12:51:58.927Z,92.58
2023-03-24T12:56:58.071Z,93.33
2023-03-24T13:01:59.164Z,93.59
2023-03-24T13:07:00.238Z,94.13
2023-03-24T13:12:01.341Z,93.63
2023-03-24T13:17:02.568Z,95.20
2023-03-24T13:22:03.670Z,94.08
2023-03-24T13:27:04.920Z,95.69
2023-03-24T13:32:06.192Z,95.43
2023-03-24T13:37:07.319Z,96.80
2023-03-24T13:42:08.574Z,99.15
2023-03-24T13:47:09.830Z,98.07
2023-03-24T13:52:10.925Z,99.99
2023-03-24T13:57:12.040Z,99.04
2023-03-24T14:02:13.263Z,99.24
2023-03-24T14:07:14.472Z,99.99
2023-03-24T14:12:15.631Z,99.99
2023-03-24T14:17:16.840Z,99.99
2023-03-24T14:22:18.080Z,99.99
2023-03-24T14:27:19.281Z,99.80
2023-03-24T14:32:22.419Z,99.99
2023-03-24T14:37:21.484Z,99.40
2023-03-24T14:42:26.519Z,99.40
2023-03-24T14:47:23.695Z,97.71
2023-03-24T14:52:24.844Z,99.99
2023-03-24T14:57:26.936Z,95.58
2023-03-24T15:02:26.307Z,97.37
2023-03-24T15:07:27.582Z,91.61
2023-03-24T15:12:28.729Z,86.57
2023-03-24T15:17:29.872Z,92.58
2023-03-24T15:22:31.102Z,92.67
2023-03-24T15:27:32.236Z,88.55
2023-03-24T15:32:33.466Z,90.38
2023-03-24T15:37:34.562Z,89.47
2023-03-24T15:42:35.753Z,89.77
2023-03-24T15:47:36.988Z,88.24
2023-03-24T15:52:38.118Z,87.84
2023-03-24T15:57:39.293Z,84.74
2023-03-24T16:02:40.583Z,87.84
2023-03-24T16:07:41.714Z,86.71
2023-03-24T16:12:42.851Z,87.63
2023-03-24T16:17:44.001Z,87.02
2023-03-24T16:22:45.135Z,87.98
2023-03-24T16:27:46.255Z,89.00
2023-03-24T16:32:47.461Z,86.76
2023-03-24T16:37:48.599Z,85.74
2023-03-24T16:42:49.762Z,86.69
2023-03-24T16:47:51.849Z,85.57
2023-03-24T16:52:51.979Z,86.80
2023-03-24T16:57:51.100Z,85.27
2023-03-24T17:02:52.359Z,84.92
2023-03-24T17:07:53.538Z,88.63
2023-03-24T17:12:55.954Z,83.84
2023-03-24T17:17:55.367Z,86.65
2023-03-24T17:22:56.515Z,87.71
2023-03-24T17:27:57.717Z,88.37
2023-03-24T17:33:00.861Z,86.83
2023-03-24T17:38:00.098Z,89.84
2023-03-24T17:43:01.270Z,92.23
2023-03-24T17:48:01.655Z,94.07
2023-03-24T17:53:02.883Z,94.52
2023-03-24T17:58:03.188Z,95.23
2023-03-24T18:03:05.505Z,95.34
2023-03-24T18:08:04.737Z,95.64
2023-03-24T18:13:06.215Z,95.75
2023-03-24T18:18:06.723Z,93.60
2023-03-24T18:23:05.959Z,94.48
2023-03-24T18:28:07.122Z,94.48
2023-03-24T18:33:08.648Z,93.86
2023-03-24T18:38:07.945Z,93.35
2023-03-24T18:43:09.381Z,94.01
2023-03-24T18:48:11.510Z,94.32
2023-03-24T18:53:13.068Z,97.89
2023-03-24T18:58:12.699Z,96.81
2023-03-24T19:03:12.330Z,98.80
2023-03-24T19:08:13.670Z,99.99
2023-03-24T19:13:13.286Z,96.59
2023-03-24T19:18:13.019Z,96.91
2023-03-24T19:23:13.413Z,92.71
2023-03-24T19:28:12.968Z,89.84
2023-03-24T19:33:13.823Z,88.20
2023-03-24T19:38:13.341Z,88.82
2023-03-24T19:43:12.885Z,89.68
2023-03-24T19:48:12.554Z,92.30
2023-03-24T19:53:12.149Z,95.17
2023-03-24T19:58:11.781Z,95.67
2023-03-24T20:03:11.527Z,96.80
2023-03-24T20:08:11.023Z,97.87
2023-03-24T20:13:12.543Z,97.05
2023-03-24T20:18:11.978Z,95.56
2023-03-24T20:23:13.512Z,96.07
2023-03-24T20:28:12.980Z,89.06
2023-03-24T20:33:12.947Z,92.28
2023-03-24T20:38:12.906Z,91.36
2023-03-24T20:43:12.541Z,95.40
2023-03-24T20:48:12.093Z,95.95
2023-03-24T20:53:11.639Z,94.15
2023-03-24T20:58:10.797Z,93.74
2023-03-24T21:03:13.133Z,94.56
2023-03-24T21:08:12.549Z,94.26
2023-03-24T21:13:13.802Z,94.15
2023-03-24T21:18:15.175Z,94.40
2023-03-24T21:23:16.674Z,95.32
2023-03-24T21:28:15.983Z,95.17
2023-03-24T21:33:17.221Z,92.00
2023-03-24T21:38:18.329Z,92.86
2023-03-24T21:43:18.483Z,93.83
2023-03-24T21:48:19.785Z,94.90
2023-03-24T21:53:20.967Z,95.62
2023-03-24T21:58:23.176Z,96.94
2023-03-24T22:03:22.369Z,97.20
2023-03-24T22:08:23.590Z,97.25
2023-03-24T22:13:24.686Z,96.94
2023-03-24T22:18:25.851Z,95.92
2023-03-24T22:23:26.983Z,96.53
2023-03-24T22:28:29.201Z,93.10
2023-03-24T22:33:28.302Z,89.66
2023-03-24T22:38:29.427Z,92.48
2023-03-24T22:43:30.531Z,89.97
2023-03-24T22:48:31.616Z,92.69
2023-03-24T22:53:32.809Z,89.09
2023-03-24T22:58:33.981Z,89.36
2023-03-24T23:03:35.138Z,83.53
2023-03-24T23:08:36.329Z,89.36
2023-03-24T23:13:37.567Z,90.22
2023-03-24T23:18:38.740Z,92.16
2023-03-24T23:23:39.922Z,91.89
2023-03-24T23:28:41.144Z,92.30
2023-03-24T23:33:42.460Z,88.82
2023-03-24T23:38:43.659Z,86.25
2023-03-24T23:43:44.883Z,78.05
2023-03-24T23:48:47.004Z,76.58
2023-03-24T23:53:46.190Z,74.56
2023-03-24T23:58:47.346Z,71.56
